Terminal Aerodrome Forecast
Issued by NWS

Home | Current Version | Previous Version | Text Only | Print | Product List | Glossary Off
Versions: 1 2 3 4 5 6 7 8 9 10 11 12 13 14 15 16 17 18 19 20

818
FTUS43 KICT 200530 AAA
TAFRSL
TAF AMD
KRSL 200530Z 2005/2106 36013G22KT 6SM BR OVC005
     FM201100 01013KT P6SM SCT005 OVC025
     FM201500 36013KT P6SM BKN015=

USA.gov is the U.S. government's official web portal to all federal, state and local government web resources and services.